createdAt,value
2022-08-19T00:02:01.580Z,62.87
2022-08-19T00:04:33.889Z,62.90
2022-08-19T00:07:04.755Z,62.98
2022-08-19T00:09:33.638Z,62.91
2022-08-19T00:12:02.660Z,63.00
2022-08-19T00:14:33.170Z,62.95
2022-08-19T00:17:02.280Z,63.09
2022-08-19T00:19:31.230Z,62.94
2022-08-19T00:21:59.973Z,63.10
2022-08-19T00:24:29.988Z,62.90
2022-08-19T00:27:25.060Z,63.10
2022-08-19T00:29:47.198Z,63.16
2022-08-19T00:32:21.815Z,63.30
2022-08-19T00:34:50.221Z,63.27
2022-08-19T00:37:19.008Z,63.29
2022-08-19T00:39:49.212Z,63.67
2022-08-19T00:42:17.879Z,63.70
2022-08-19T00:44:46.453Z,63.97
2022-08-19T00:47:16.169Z,63.92
2022-08-19T00:49:52.146Z,63.97
2022-08-19T00:52:28.064Z,63.99
2022-08-19T00:54:59.513Z,64.15
2022-08-19T00:57:34.557Z,64.19
2022-08-19T01:00:06.649Z,64.49
2022-08-19T01:02:35.382Z,64.73
2022-08-19T01:05:10.885Z,64.57
2022-08-19T01:07:41.525Z,64.66
2022-08-19T01:10:16.420Z,64.76
2022-08-19T01:12:45.380Z,64.73
2022-08-19T01:15:17.759Z,64.81
2022-08-19T01:17:47.857Z,64.92
2022-08-19T01:20:21.120Z,64.89
2022-08-19T01:22:54.962Z,64.88
2022-08-19T01:25:29.361Z,64.97
2022-08-19T01:28:09.890Z,64.98
2022-08-19T01:30:39.611Z,64.93
2022-08-19T01:33:12.962Z,65.05
2022-08-19T01:35:42.159Z,65.11
2022-08-19T01:38:21.369Z,65.03
2022-08-19T01:40:50.297Z,65.33
2022-08-19T01:43:19.982Z,65.16
2022-08-19T01:45:48.799Z,65.19
2022-08-19T01:48:17.510Z,65.36
2022-08-19T01:50:46.221Z,65.46
2022-08-19T01:53:16.198Z,65.25
2022-08-19T01:55:46.134Z,65.40
2022-08-19T01:58:21.496Z,65.38
2022-08-19T02:00:50.477Z,65.50
2022-08-19T02:03:19.233Z,65.56
2022-08-19T02:05:47.902Z,65.60
2022-08-19T02:08:17.749Z,65.48
2022-08-19T02:10:46.811Z,65.50
2022-08-19T02:13:15.621Z,65.34
2022-08-19T02:15:49.603Z,65.44
2022-08-19T02:18:18.060Z,65.63
2022-08-19T02:20:48.520Z,65.42
2022-08-19T02:23:19.204Z,65.56
2022-08-19T02:25:50.145Z,65.60
2022-08-19T02:28:19.077Z,65.58
2022-08-19T02:30:49.776Z,65.50
2022-08-19T02:33:19.029Z,65.68
2022-08-19T02:35:49.000Z,65.52
2022-08-19T02:38:26.893Z,65.91
2022-08-19T02:40:58.582Z,65.87
2022-08-19T02:43:28.519Z,65.80
2022-08-19T02:45:57.014Z,65.97
2022-08-19T02:48:27.452Z,66.12
2022-08-19T02:51:02.494Z,66.15
2022-08-19T02:53:32.412Z,66.06
2022-08-19T02:56:00.822Z,66.19
2022-08-19T02:58:29.205Z,66.35
2022-08-19T03:00:59.423Z,66.21
2022-08-19T03:03:28.437Z,66.22
2022-08-19T03:06:09.042Z,66.14
2022-08-19T03:08:39.808Z,66.35
2022-08-19T03:11:08.663Z,66.41
2022-08-19T03:13:37.021Z,66.49
2022-08-19T03:16:07.783Z,66.35
2022-08-19T03:18:36.177Z,66.59
2022-08-19T03:21:05.264Z,66.69
2022-08-19T03:23:34.699Z,66.79
2022-08-19T03:26:16.400Z,66.70
2022-08-19T03:28:58.335Z,66.82
2022-08-19T03:31:45.663Z,66.95
2022-08-19T03:34:27.149Z,67.07
2022-08-19T03:37:06.680Z,67.04
2022-08-19T03:39:35.494Z,67.14
2022-08-19T03:42:32.263Z,67.09
2022-08-19T03:45:11.429Z,67.20
2022-08-19T03:47:42.852Z,67.43
2022-08-19T03:50:11.809Z,67.26
2022-08-19T03:52:40.589Z,67.23
2022-08-19T03:55:14.260Z,67.32
2022-08-19T03:57:44.019Z,67.33
2022-08-19T04:00:14.395Z,67.28
2022-08-19T04:02:58.462Z,67.34
2022-08-19T04:05:30.482Z,67.38
2022-08-19T04:08:00.063Z,67.58
2022-08-19T04:10:29.615Z,67.57
2022-08-19T04:12:59.474Z,67.66
2022-08-19T04:15:29.769Z,67.74
2022-08-19T04:17:58.142Z,67.82
2022-08-19T04:20:26.519Z,67.88
2022-08-19T04:22:55.004Z,67.76
2022-08-19T04:25:23.497Z,68.08
2022-08-19T04:27:51.965Z,68.17
2022-08-19T04:30:23.522Z,68.11
2022-08-19T04:32:52.117Z,68.20
2022-08-19T04:35:24.441Z,68.16
2022-08-19T04:37:53.446Z,68.21
2022-08-19T04:40:39.536Z,68.11
2022-08-19T04:43:08.062Z,68.04
2022-08-19T04:45:43.740Z,68.17
2022-08-19T04:48:27.163Z,68.10
2022-08-19T04:50:59.475Z,68.12
2022-08-19T04:53:29.625Z,68.16
2022-08-19T04:56:09.649Z,68.13
2022-08-19T04:58:42.727Z,68.08
2022-08-19T05:01:15.196Z,68.07
2022-08-19T05:03:43.954Z,68.24
2022-08-19T05:06:15.558Z,68.16
2022-08-19T05:08:46.193Z,68.07
2022-08-19T05:11:19.107Z,68.00
2022-08-19T05:13:50.525Z,68.06
2022-08-19T05:16:22.810Z,67.77
2022-08-19T05:19:09.822Z,67.83
2022-08-19T05:22:01.325Z,67.72
2022-08-19T05:24:30.565Z,67.44
2022-08-19T05:26:59.760Z,67.46
2022-08-19T05:29:29.984Z,67.48
2022-08-19T05:32:09.270Z,67.52
2022-08-19T05:34:38.984Z,67.33
2022-08-19T05:37:09.285Z,67.49
2022-08-19T05:39:39.457Z,67.34
2022-08-19T05:42:12.365Z,67.26
2022-08-19T05:44:44.253Z,67.33
2022-08-19T05:47:15.790Z,67.33
2022-08-19T05:49:45.074Z,67.24
2022-08-19T05:52:16.438Z,67.14
2022-08-19T05:54:51.012Z,67.10
2022-08-19T05:57:20.766Z,67.02
2022-08-19T05:59:53.276Z,67.04
2022-08-19T06:02:28.508Z,66.90
2022-08-19T06:04:56.976Z,67.07
2022-08-19T06:07:25.571Z,66.88
2022-08-19T06:10:00.159Z,67.08
2022-08-19T06:12:32.639Z,66.96
2022-08-19T06:15:02.397Z,66.79
2022-08-19T06:17:32.739Z,66.91
2022-08-19T06:20:01.300Z,66.73
2022-08-19T06:22:30.366Z,66.71
2022-08-19T06:24:58.795Z,66.72
2022-08-19T06:27:27.164Z,66.58
2022-08-19T06:29:55.520Z,66.43
2022-08-19T06:32:23.911Z,66.32
2022-08-19T06:34:53.660Z,66.23
2022-08-19T06:37:22.749Z,66.05
2022-08-19T06:39:52.113Z,66.07
2022-08-19T06:42:21.739Z,65.75
2022-08-19T06:44:53.533Z,65.62
2022-08-19T06:47:26.521Z,65.61
2022-08-19T06:50:03.732Z,65.31
2022-08-19T06:52:34.233Z,65.67
2022-08-19T06:55:06.229Z,65.50
2022-08-19T06:57:36.384Z,65.29
2022-08-19T07:00:13.041Z,65.26
2022-08-19T07:02:44.685Z,64.93
2022-08-19T07:05:18.953Z,64.75
2022-08-19T07:07:48.796Z,64.65
2022-08-19T07:10:20.173Z,64.67
2022-08-19T07:12:48.601Z,64.38
2022-08-19T07:15:17.212Z,63.34
2022-08-19T07:17:49.320Z,62.93
2022-08-19T07:20:22.836Z,61.73
2022-08-19T07:22:57.251Z,61.00
2022-08-19T07:25:32.258Z,60.70
2022-08-19T07:28:01.828Z,60.40
2022-08-19T07:30:30.424Z,59.67
2022-08-19T07:33:00.204Z,59.27
2022-08-19T07:35:34.504Z,58.98
2022-08-19T07:38:04.689Z,58.28
2022-08-19T07:40:33.290Z,58.03
2022-08-19T07:43:01.977Z,57.71
2022-08-19T07:45:30.485Z,57.87
2022-08-19T07:47:59.465Z,57.27
2022-08-19T07:50:28.044Z,57.10
2022-08-19T07:52:57.987Z,56.67
2022-08-19T07:55:41.794Z,56.37
2022-08-19T07:58:15.112Z,56.13
2022-08-19T08:00:44.612Z,55.45
2022-08-19T08:03:13.572Z,54.54
2022-08-19T08:06:00.052Z,54.22
2022-08-19T08:08:48.580Z,53.26
2022-08-19T08:11:20.736Z,52.38
2022-08-19T08:14:00.760Z,51.92
2022-08-19T08:16:35.721Z,50.99
2022-08-19T08:19:20.280Z,50.89
2022-08-19T08:21:52.688Z,50.75
2022-08-19T08:24:22.461Z,50.69
2022-08-19T08:26:57.792Z,50.44
2022-08-19T08:29:26.764Z,50.40
2022-08-19T08:32:03.389Z,50.29
2022-08-19T08:34:31.865Z,50.40
2022-08-19T08:37:00.368Z,50.65
2022-08-19T08:39:30.427Z,50.46
2022-08-19T08:42:17.785Z,50.86
2022-08-19T08:47:40.933Z,51.15
2022-08-19T08:50:15.634Z,50.43
2022-08-19T08:52:49.019Z,50.28
2022-08-19T08:55:24.741Z,49.79
2022-08-19T08:58:01.147Z,50.06
2022-08-19T09:00:34.940Z,50.05
2022-08-19T09:03:06.525Z,50.13
2022-08-19T09:05:50.385Z,49.74
2022-08-19T09:08:28.536Z,48.87
2022-08-19T09:10:59.364Z,47.60
2022-08-19T09:13:38.325Z,46.90
2022-08-19T09:16:12.431Z,46.35
2022-08-19T09:18:44.884Z,46.25
2022-08-19T09:21:14.109Z,46.13
2022-08-19T09:23:44.270Z,45.35
2022-08-19T09:26:17.749Z,45.12
2022-08-19T09:28:51.785Z,45.40
2022-08-19T09:31:22.860Z,45.21
2022-08-19T09:33:53.343Z,45.90
2022-08-19T09:36:34.500Z,45.42
2022-08-19T09:39:04.684Z,45.38
2022-08-19T09:41:47.262Z,45.75
2022-08-19T09:44:16.193Z,45.64
2022-08-19T09:46:44.806Z,45.58
2022-08-19T09:49:13.475Z,45.37
2022-08-19T09:51:41.861Z,44.74
2022-08-19T09:54:11.437Z,43.58
2022-08-19T09:56:40.000Z,43.28
2022-08-19T09:59:13.047Z,42.98
2022-08-19T10:01:41.790Z,43.24
2022-08-19T10:04:19.956Z,43.95
2022-08-19T10:06:51.799Z,43.62
2022-08-19T10:09:34.016Z,43.67
2022-08-19T10:12:04.081Z,43.16
2022-08-19T10:14:33.973Z,42.13
2022-08-19T10:17:19.835Z,41.80
2022-08-19T10:19:55.521Z,41.13
2022-08-19T10:22:25.668Z,40.48
2022-08-19T10:24:55.293Z,39.60
2022-08-19T10:27:23.904Z,39.84
2022-08-19T10:29:56.398Z,39.69
2022-08-19T10:32:32.036Z,39.99
2022-08-19T10:35:05.457Z,40.31
2022-08-19T10:37:35.259Z,39.63
2022-08-19T10:40:05.688Z,38.96
2022-08-19T10:42:34.333Z,38.52
2022-08-19T10:45:05.060Z,37.86
2022-08-19T10:47:33.697Z,37.33
2022-08-19T10:50:19.257Z,37.27
2022-08-19T10:52:51.005Z,36.57
2022-08-19T10:55:45.488Z,36.16
2022-08-19T10:58:15.892Z,35.88
2022-08-19T11:00:54.080Z,35.68
2022-08-19T11:03:22.902Z,35.11
2022-08-19T11:06:01.295Z,35.63
2022-08-19T11:08:31.672Z,35.80
2022-08-19T11:11:04.166Z,35.25
2022-08-19T11:13:36.712Z,35.04
2022-08-19T11:16:09.516Z,34.46
2022-08-19T11:18:39.582Z,34.60
2022-08-19T11:21:10.877Z,33.84
2022-08-19T11:23:39.616Z,34.16
2022-08-19T11:26:08.080Z,33.82
2022-08-19T11:28:36.816Z,33.78
2022-08-19T11:31:11.014Z,33.53
2022-08-19T11:33:39.768Z,33.44
2022-08-19T11:36:08.936Z,33.37
2022-08-19T11:38:38.760Z,33.04
2022-08-19T11:41:09.475Z,32.19
2022-08-19T11:43:40.557Z,32.85
2022-08-19T11:46:13.873Z,32.91
2022-08-19T11:48:43.065Z,32.66
2022-08-19T11:51:16.660Z,32.52
2022-08-19T11:53:45.629Z,31.96
2022-08-19T11:56:14.856Z,31.70
2022-08-19T11:58:44.559Z,31.33
2022-08-19T12:01:17.540Z,30.92
2022-08-19T12:03:47.513Z,30.29
2022-08-19T12:06:20.538Z,30.56
2022-08-19T12:08:49.422Z,30.47
2022-08-19T12:11:18.071Z,30.93
2022-08-19T12:13:47.342Z,31.15
2022-08-19T12:16:20.184Z,31.03
2022-08-19T12:18:49.383Z,30.55
2022-08-19T12:21:22.138Z,30.83
2022-08-19T12:23:55.687Z,31.34
2022-08-19T12:26:25.525Z,31.56
2022-08-19T12:28:54.578Z,31.69
2022-08-19T12:31:24.436Z,31.10
2022-08-19T12:33:53.280Z,31.41
2022-08-19T12:36:22.934Z,31.00
2022-08-19T12:38:51.493Z,30.14
2022-08-19T12:41:23.164Z,29.43
2022-08-19T12:43:52.105Z,28.65
2022-08-19T12:46:23.781Z,28.38
2022-08-19T12:48:56.091Z,28.16
2022-08-19T12:51:26.200Z,28.26
2022-08-19T12:53:54.626Z,27.85
2022-08-19T12:56:23.507Z,27.65
2022-08-19T12:58:52.877Z,27.92
2022-08-19T13:01:23.569Z,28.48
2022-08-19T13:03:54.145Z,28.68
2022-08-19T13:06:22.573Z,28.08
2022-08-19T13:08:51.081Z,27.67
2022-08-19T13:11:25.254Z,27.15
2022-08-19T13:13:56.329Z,26.53
2022-08-19T13:16:28.468Z,26.15
2022-08-19T13:18:58.213Z,25.63
2022-08-19T13:21:30.850Z,25.35
2022-08-19T13:23:59.406Z,25.90
2022-08-19T13:26:27.828Z,26.81
2022-08-19T13:29:13.929Z,27.34
2022-08-19T13:32:01.764Z,27.71
2022-08-19T13:34:36.007Z,28.69
2022-08-19T13:37:06.553Z,27.71
2022-08-19T13:39:36.411Z,27.13
2022-08-19T13:42:06.547Z,26.19
2022-08-19T13:44:35.058Z,25.63
2022-08-19T13:47:07.937Z,24.74
2022-08-19T13:49:38.069Z,24.52
2022-08-19T13:52:07.791Z,23.68
2022-08-19T13:54:36.120Z,23.83
2022-08-19T13:57:05.014Z,23.58
2022-08-19T13:59:34.028Z,23.12
2022-08-19T14:02:06.410Z,22.81
2022-08-19T14:04:34.944Z,23.12
2022-08-19T14:07:04.336Z,23.48
2022-08-19T14:09:32.921Z,23.46
2022-08-19T14:12:01.484Z,23.56
2022-08-19T14:14:30.057Z,23.84
2022-08-19T14:16:58.421Z,23.61
2022-08-19T14:19:30.001Z,23.29
2022-08-19T14:21:59.547Z,23.07
2022-08-19T14:24:28.031Z,23.02
2022-08-19T14:26:56.486Z,23.10
2022-08-19T14:29:24.883Z,22.98
2022-08-19T14:31:53.306Z,23.08
2022-08-19T14:34:21.746Z,23.32
2022-08-19T14:36:51.580Z,23.27
2022-08-19T14:39:20.172Z,23.50
2022-08-19T14:41:48.541Z,23.82
2022-08-19T14:44:17.025Z,24.38
2022-08-19T14:46:49.687Z,24.32
2022-08-19T14:49:18.932Z,25.19
2022-08-19T14:51:48.613Z,25.32
2022-08-19T14:54:18.437Z,25.05
2022-08-19T14:56:46.954Z,24.71
2022-08-19T14:59:15.552Z,24.23
2022-08-19T15:01:44.302Z,23.78
2022-08-19T15:04:12.736Z,23.77
2022-08-19T15:06:43.311Z,24.16
2022-08-19T15:09:12.219Z,24.04
2022-08-19T15:11:41.954Z,24.23
2022-08-19T15:14:10.966Z,23.77
2022-08-19T15:16:42.600Z,23.82
2022-08-19T15:19:11.377Z,23.26
2022-08-19T15:21:39.898Z,23.38
2022-08-19T15:24:10.085Z,23.28
2022-08-19T15:26:38.661Z,23.77
2022-08-19T15:29:09.193Z,24.11
2022-08-19T15:31:37.962Z,24.44
2022-08-19T15:34:07.710Z,24.52
2022-08-19T15:36:36.544Z,24.27
2022-08-19T15:39:07.407Z,24.45
2022-08-19T15:41:37.126Z,24.20
2022-08-19T15:44:13.206Z,25.21
2022-08-19T15:46:45.310Z,25.73
2022-08-19T15:49:16.072Z,26.14
2022-08-19T15:51:47.538Z,26.54
2022-08-19T15:54:21.594Z,26.88
2022-08-19T15:57:08.603Z,27.31
2022-08-19T15:59:59.989Z,27.24
2022-08-19T16:02:53.519Z,27.57
2022-08-19T16:05:44.482Z,27.75
2022-08-19T16:08:13.397Z,27.97
2022-08-19T16:10:41.922Z,28.20
2022-08-19T16:13:10.852Z,28.48
2022-08-19T16:15:44.929Z,28.07
2022-08-19T16:18:13.635Z,28.59
2022-08-19T16:20:42.133Z,28.71
2022-08-19T16:23:10.568Z,28.67
2022-08-19T16:25:39.333Z,29.05
2022-08-19T16:28:09.751Z,28.67
2022-08-19T16:30:42.840Z,28.22
2022-08-19T16:33:22.669Z,28.27
2022-08-19T16:35:56.079Z,28.36
2022-08-19T16:38:29.790Z,28.43
2022-08-19T16:41:00.485Z,28.46
2022-08-19T16:43:31.913Z,28.57
2022-08-19T16:46:02.474Z,28.52
2022-08-19T16:48:32.924Z,28.86
2022-08-19T16:51:02.640Z,29.34
2022-08-19T16:53:32.068Z,29.54
2022-08-19T16:56:01.520Z,30.11
2022-08-19T16:58:33.988Z,30.34
2022-08-19T17:01:07.566Z,30.33
2022-08-19T17:03:37.664Z,30.90
2022-08-19T17:06:20.355Z,31.58
2022-08-19T17:08:50.158Z,32.34
2022-08-19T17:11:19.834Z,32.25
2022-08-19T17:13:49.395Z,32.37
2022-08-19T17:16:22.064Z,32.75
2022-08-19T17:18:52.817Z,33.24
2022-08-19T17:21:21.745Z,33.65
2022-08-19T17:23:50.628Z,33.42
2022-08-19T17:26:19.821Z,33.96
2022-08-19T17:28:50.213Z,33.68
2022-08-19T17:31:23.948Z,33.13
2022-08-19T17:33:52.861Z,33.51
2022-08-19T17:36:26.294Z,33.03
2022-08-19T17:38:56.631Z,33.52
2022-08-19T17:41:25.693Z,33.56
2022-08-19T17:43:54.437Z,33.31
2022-08-19T17:46:24.310Z,33.25
2022-08-19T17:48:57.628Z,33.70
2022-08-19T17:51:42.196Z,33.52
2022-08-19T17:54:15.200Z,33.92
2022-08-19T17:56:46.198Z,33.94
2022-08-19T17:59:15.654Z,34.21
2022-08-19T18:01:53.930Z,34.70
2022-08-19T18:04:24.789Z,34.68
2022-08-19T18:06:54.907Z,34.88
2022-08-19T18:09:26.244Z,35.31
2022-08-19T18:11:56.781Z,35.69
2022-08-19T18:14:33.787Z,35.79
2022-08-19T18:17:09.468Z,36.03
2022-08-19T18:19:42.188Z,36.38
2022-08-19T18:22:26.676Z,36.41
2022-08-19T18:24:56.079Z,36.62
2022-08-19T18:27:24.846Z,37.05
2022-08-19T18:29:56.633Z,37.12
2022-08-19T18:32:27.421Z,37.12
2022-08-19T18:34:56.131Z,37.25
2022-08-19T18:37:26.656Z,37.54
2022-08-19T18:40:12.944Z,37.69
2022-08-19T18:43:02.166Z,37.67
2022-08-19T18:45:48.337Z,38.07
2022-08-19T18:48:35.631Z,38.14
2022-08-19T18:51:04.561Z,38.37
2022-08-19T18:53:37.655Z,38.40
2022-08-19T18:56:06.609Z,38.65
2022-08-19T18:58:35.981Z,38.65
2022-08-19T19:01:10.774Z,38.83
2022-08-19T19:03:45.244Z,39.09
2022-08-19T19:06:16.089Z,39.30
2022-08-19T19:08:44.588Z,39.19
2022-08-19T19:11:13.309Z,39.46
2022-08-19T19:13:42.145Z,39.71
2022-08-19T19:16:11.570Z,39.86
2022-08-19T19:18:42.534Z,39.96
2022-08-19T19:21:11.692Z,40.16
2022-08-19T19:23:42.360Z,40.38
2022-08-19T19:26:11.829Z,40.54
2022-08-19T19:28:48.044Z,40.52
2022-08-19T19:31:22.741Z,40.73
2022-08-19T19:33:52.336Z,40.63
2022-08-19T19:36:21.341Z,40.89
2022-08-19T19:38:49.796Z,41.04
2022-08-19T19:41:23.361Z,40.81
2022-08-19T19:44:10.103Z,41.26
2022-08-19T19:46:42.372Z,41.22
2022-08-19T19:49:13.353Z,41.38
2022-08-19T19:51:43.361Z,41.52
2022-08-19T19:54:14.649Z,41.55
2022-08-19T19:56:45.050Z,41.73
2022-08-19T19:59:13.974Z,41.68
2022-08-19T20:01:46.857Z,41.98
2022-08-19T20:04:18.316Z,42.20
2022-08-19T20:06:47.816Z,42.35
2022-08-19T20:09:19.709Z,42.15
2022-08-19T20:11:53.498Z,42.69
2022-08-19T20:14:25.169Z,42.35
2022-08-19T20:16:55.636Z,42.58
2022-08-19T20:19:28.227Z,42.90
2022-08-19T20:21:57.628Z,42.82
2022-08-19T20:24:33.096Z,43.19
2022-08-19T20:27:02.529Z,43.06
2022-08-19T20:29:39.059Z,43.13
2022-08-19T20:32:10.014Z,43.38
2022-08-19T20:34:41.043Z,43.57
2022-08-19T20:37:09.861Z,43.41
2022-08-19T20:39:38.699Z,43.59
2022-08-19T20:42:07.504Z,43.85
2022-08-19T20:44:36.301Z,44.15
2022-08-19T20:47:04.852Z,43.98
2022-08-19T20:49:33.488Z,44.26
2022-08-19T20:52:06.240Z,44.43
2022-08-19T20:54:34.726Z,44.67
2022-08-19T20:57:05.359Z,44.75
2022-08-19T20:59:34.377Z,44.92
2022-08-19T21:02:02.726Z,45.05
2022-08-19T21:04:31.144Z,45.21
2022-08-19T21:06:59.853Z,45.35
2022-08-19T21:09:29.670Z,45.57
2022-08-19T21:11:58.069Z,45.34
2022-08-19T21:14:26.548Z,45.62
2022-08-19T21:16:55.432Z,45.88
2022-08-19T21:19:24.285Z,45.79
2022-08-19T21:21:53.720Z,45.89
2022-08-19T21:24:26.342Z,45.72
2022-08-19T21:27:01.717Z,45.92
2022-08-19T21:29:32.036Z,46.13
2022-08-19T21:32:00.475Z,46.46
2022-08-19T21:34:29.445Z,46.47
2022-08-19T21:36:57.833Z,46.52
2022-08-19T21:39:26.228Z,46.64
2022-08-19T21:41:54.756Z,46.55
2022-08-19T21:44:24.517Z,46.67
2022-08-19T21:46:52.920Z,46.69
2022-08-19T21:49:21.333Z,47.03
2022-08-19T21:51:50.030Z,47.18
2022-08-19T21:54:18.452Z,47.07
2022-08-19T21:56:47.403Z,47.16
2022-08-19T21:59:16.866Z,47.38
2022-08-19T22:01:51.973Z,47.87
2022-08-19T22:04:25.096Z,48.04
2022-08-19T22:06:55.205Z,47.90
2022-08-19T22:09:23.823Z,47.90
2022-08-19T22:11:52.204Z,47.77
2022-08-19T22:14:20.861Z,48.07
2022-08-19T22:16:50.573Z,48.50
2022-08-19T22:19:18.990Z,48.54
2022-08-19T22:21:47.344Z,48.77
2022-08-19T22:24:15.706Z,48.69
2022-08-19T22:26:44.136Z,49.03
2022-08-19T22:29:15.700Z,49.25
2022-08-19T22:31:46.128Z,49.11
2022-08-19T22:34:24.790Z,49.38
2022-08-19T22:36:53.212Z,49.47
2022-08-19T22:39:21.549Z,49.72
2022-08-19T22:41:49.998Z,49.95
2022-08-19T22:44:18.405Z,50.01
2022-08-19T22:46:46.753Z,50.17
2022-08-19T22:49:15.144Z,50.35
2022-08-19T22:52:02.400Z,50.18
2022-08-19T22:54:31.008Z,50.19
2022-08-19T22:57:00.028Z,50.61
2022-08-19T22:59:28.614Z,50.90
2022-08-19T23:01:57.049Z,50.86
2022-08-19T23:04:25.756Z,50.85
2022-08-19T23:06:55.653Z,51.11
2022-08-19T23:09:24.074Z,51.25
2022-08-19T23:11:53.831Z,51.07
2022-08-19T23:14:22.309Z,51.06
2022-08-19T23:16:51.554Z,50.98
2022-08-19T23:19:22.115Z,51.12
2022-08-19T23:21:50.721Z,51.37
2022-08-19T23:24:20.608Z,51.31
2022-08-19T23:27:07.022Z,51.19
2022-08-19T23:29:53.001Z,51.39
2022-08-19T23:32:23.471Z,51.61
2022-08-19T23:34:51.992Z,51.61
2022-08-19T23:37:20.386Z,51.88
2022-08-19T23:39:52.440Z,52.08
2022-08-19T23:42:21.411Z,51.87
2022-08-19T23:44:51.305Z,52.15
2022-08-19T23:47:21.557Z,52.33
2022-08-19T23:49:50.581Z,52.19
2022-08-19T23:52:19.439Z,52.17
2022-08-19T23:54:48.201Z,52.40
2022-08-19T23:57:18.100Z,52.48
2022-08-19T23:59:46.499Z,52.43
